sensor_id;sensor_type;location;lat;lon;timestamp;pressure;altitude;pressure_sealevel;temperature;humidity
21988;BME280;11158;53.404;-1.510;2022-12-18T00:00:59;100952.56;;;7.02;54.45
21988;BME280;11158;53.404;-1.510;2022-12-18T00:03:25;100955.78;;;5.82;57.74
21988;BME280;11158;53.404;-1.510;2022-12-18T00:05:52;100952.34;;;5.12;59.57
21988;BME280;11158;53.404;-1.510;2022-12-18T00:08:18;100954.22;;;4.60;62.29
21988;BME280;11158;53.404;-1.510;2022-12-18T00:10:45;100953.28;;;4.61;62.94
21988;BME280;11158;53.404;-1.510;2022-12-18T00:13:11;100942.19;;;4.46;62.68
21988;BME280;11158;53.404;-1.510;2022-12-18T00:15:39;100964.72;;;3.98;64.04
21988;BME280;11158;53.404;-1.510;2022-12-18T00:18:05;100956.94;;;4.18;62.62
21988;BME280;11158;53.404;-1.510;2022-12-18T00:20:35;100955.94;;;4.19;62.66
21988;BME280;11158;53.404;-1.510;2022-12-18T00:23:01;100964.16;;;3.63;63.88
21988;BME280;11158;53.404;-1.510;2022-12-18T00:25:26;100957.91;;;4.17;62.55
21988;BME280;11158;53.404;-1.510;2022-12-18T00:27:52;100962.72;;;3.59;64.07
21988;BME280;11158;53.404;-1.510;2022-12-18T00:30:18;100968.59;;;3.94;63.12
21988;BME280;11158;53.404;-1.510;2022-12-18T00:32:44;100959.56;;;5.00;61.64
21988;BME280;11158;53.404;-1.510;2022-12-18T00:35:09;100964.56;;;5.54;59.57
21988;BME280;11158;53.404;-1.510;2022-12-18T00:37:35;100963.88;;;5.81;57.25
21988;BME280;11158;53.404;-1.510;2022-12-18T00:40:01;100970.06;;;4.81;58.76
21988;BME280;11158;53.404;-1.510;2022-12-18T00:42:28;100963.69;;;4.83;59.21
21988;BME280;11158;53.404;-1.510;2022-12-18T00:45:12;100975.91;;;4.02;62.08
21988;BME280;11158;53.404;-1.510;2022-12-18T00:47:38;100970.25;;;3.31;64.38
21988;BME280;11158;53.404;-1.510;2022-12-18T00:50:04;100970.97;;;3.33;64.78
21988;BME280;11158;53.404;-1.510;2022-12-18T00:52:29;100969.75;;;3.48;63.80
21988;BME280;11158;53.404;-1.510;2022-12-18T00:54:55;100970.59;;;4.02;62.00
21988;BME280;11158;53.404;-1.510;2022-12-18T00:57:21;100973.56;;;4.09;61.21
21988;BME280;11158;53.404;-1.510;2022-12-18T00:59:47;100970.34;;;5.09;60.37
21988;BME280;11158;53.404;-1.510;2022-12-18T01:02:13;100967.31;;;5.33;57.79
21988;BME280;11158;53.404;-1.510;2022-12-18T01:04:39;100971.97;;;5.79;56.41
21988;BME280;11158;53.404;-1.510;2022-12-18T01:07:04;100981.00;;;5.38;56.32
21988;BME280;11158;53.404;-1.510;2022-12-18T01:09:30;100978.16;;;5.99;55.05
21988;BME280;11158;53.404;-1.510;2022-12-18T01:11:56;100971.72;;;5.92;54.15
21988;BME280;11158;53.404;-1.510;2022-12-18T01:14:23;100968.78;;;5.95;54.28
21988;BME280;11158;53.404;-1.510;2022-12-18T01:16:48;100969.84;;;6.41;53.27
21988;BME280;11158;53.404;-1.510;2022-12-18T01:19:14;100962.66;;;6.14;53.10
21988;BME280;11158;53.404;-1.510;2022-12-18T01:21:39;100968.91;;;5.84;54.87
21988;BME280;11158;53.404;-1.510;2022-12-18T01:24:05;100954.28;;;5.99;53.84
21988;BME280;11158;53.404;-1.510;2022-12-18T01:26:32;100955.53;;;6.05;53.27
21988;BME280;11158;53.404;-1.510;2022-12-18T01:28:58;100962.66;;;5.95;53.81
21988;BME280;11158;53.404;-1.510;2022-12-18T01:31:28;100949.66;;;6.01;53.38
21988;BME280;11158;53.404;-1.510;2022-12-18T01:33:55;100947.41;;;6.06;53.29
21988;BME280;11158;53.404;-1.510;2022-12-18T01:36:23;100951.19;;;6.14;52.92
21988;BME280;11158;53.404;-1.510;2022-12-18T01:38:51;100953.03;;;6.03;52.77
21988;BME280;11158;53.404;-1.510;2022-12-18T01:41:19;100955.81;;;6.12;52.56
21988;BME280;11158;53.404;-1.510;2022-12-18T01:46:17;100961.81;;;5.84;54.45
21988;BME280;11158;53.404;-1.510;2022-12-18T01:48:46;100951.75;;;5.98;53.09
21988;BME280;11158;53.404;-1.510;2022-12-18T01:51:13;100953.38;;;5.40;54.18
21988;BME280;11158;53.404;-1.510;2022-12-18T01:53:40;100962.19;;;4.91;55.92
21988;BME280;11158;53.404;-1.510;2022-12-18T01:56:08;100967.69;;;4.05;57.60
21988;BME280;11158;53.404;-1.510;2022-12-18T02:01:12;100968.09;;;5.04;55.71
21988;BME280;11158;53.404;-1.510;2022-12-18T02:03:41;100962.47;;;5.48;55.09
21988;BME280;11158;53.404;-1.510;2022-12-18T02:06:20;100968.50;;;5.79;53.58
21988;BME280;11158;53.404;-1.510;2022-12-18T02:09:16;100958.88;;;5.78;53.83
21988;BME280;11158;53.404;-1.510;2022-12-18T02:11:59;100967.53;;;5.80;53.11
21988;BME280;11158;53.404;-1.510;2022-12-18T02:17:07;100954.69;;;5.85;52.44
21988;BME280;11158;53.404;-1.510;2022-12-18T02:20:08;100959.84;;;5.86;53.29
21988;BME280;11158;53.404;-1.510;2022-12-18T02:28:21;100969.59;;;5.86;53.22
21988;BME280;11158;53.404;-1.510;2022-12-18T02:30:50;100970.19;;;5.90;53.15
21988;BME280;11158;53.404;-1.510;2022-12-18T02:33:19;100977.16;;;5.81;53.21
21988;BME280;11158;53.404;-1.510;2022-12-18T02:35:47;100974.91;;;5.76;53.15
21988;BME280;11158;53.404;-1.510;2022-12-18T02:38:14;100971.56;;;5.74;53.28
21988;BME280;11158;53.404;-1.510;2022-12-18T02:40:42;100972.63;;;5.42;53.78
21988;BME280;11158;53.404;-1.510;2022-12-18T02:43:10;100974.63;;;5.70;53.65
21988;BME280;11158;53.404;-1.510;2022-12-18T02:45:46;100966.66;;;5.79;53.42
21988;BME280;11158;53.404;-1.510;2022-12-18T02:48:14;100973.63;;;5.51;53.16
21988;BME280;11158;53.404;-1.510;2022-12-18T02:50:56;100971.97;;;5.60;53.76
21988;BME280;11158;53.404;-1.510;2022-12-18T02:53:46;100976.31;;;5.71;53.24
21988;BME280;11158;53.404;-1.510;2022-12-18T02:56:21;100981.63;;;5.71;53.23
21988;BME280;11158;53.404;-1.510;2022-12-18T02:59:02;100965.00;;;4.16;57.90
21988;BME280;11158;53.404;-1.510;2022-12-18T03:04:34;100966.69;;;3.64;59.60
21988;BME280;11158;53.404;-1.510;2022-12-18T03:07:10;100969.78;;;3.37;60.80
21988;BME280;11158;53.404;-1.510;2022-12-18T03:09:43;100965.59;;;3.12;61.39
21988;BME280;11158;53.404;-1.510;2022-12-18T03:12:37;100961.19;;;2.79;63.62
21988;BME280;11158;53.404;-1.510;2022-12-18T03:15:14;100958.91;;;3.84;61.02
21988;BME280;11158;53.404;-1.510;2022-12-18T03:17:46;100949.44;;;4.23;59.46
21988;BME280;11158;53.404;-1.510;2022-12-18T03:20:15;100959.16;;;4.44;59.73
21988;BME280;11158;53.404;-1.510;2022-12-18T03:22:45;100949.09;;;4.99;57.36
21988;BME280;11158;53.404;-1.510;2022-12-18T03:25:14;100955.28;;;4.48;57.24
21988;BME280;11158;53.404;-1.510;2022-12-18T03:27:45;100957.00;;;3.42;60.66
21988;BME280;11158;53.404;-1.510;2022-12-18T03:30:13;100958.97;;;3.18;62.37
21988;BME280;11158;53.404;-1.510;2022-12-18T03:35:14;100953.75;;;2.50;64.35
21988;BME280;11158;53.404;-1.510;2022-12-18T03:37:42;100954.22;;;2.89;63.48
21988;BME280;11158;53.404;-1.510;2022-12-18T03:40:08;100949.97;;;3.09;62.90
21988;BME280;11158;53.404;-1.510;2022-12-18T03:42:55;100929.72;;;3.09;63.58
21988;BME280;11158;53.404;-1.510;2022-12-18T03:45:34;100924.22;;;2.90;62.75
21988;BME280;11158;53.404;-1.510;2022-12-18T03:48:06;100922.16;;;4.02;62.69
21988;BME280;11158;53.404;-1.510;2022-12-18T03:55:37;100896.16;;;5.18;56.12
21988;BME280;11158;53.404;-1.510;2022-12-18T03:58:05;100896.66;;;4.93;55.40
21988;BME280;11158;53.404;-1.510;2022-12-18T04:00:34;100879.13;;;5.11;55.21
21988;BME280;11158;53.404;-1.510;2022-12-18T04:03:01;100870.19;;;5.02;55.17
21988;BME280;11158;53.404;-1.510;2022-12-18T04:05:28;100863.06;;;5.03;55.19
21988;BME280;11158;53.404;-1.510;2022-12-18T04:07:56;100866.94;;;4.79;54.92
21988;BME280;11158;53.404;-1.510;2022-12-18T04:10:22;100873.66;;;4.53;57.15
21988;BME280;11158;53.404;-1.510;2022-12-18T04:12:47;100863.75;;;4.86;55.89
21988;BME280;11158;53.404;-1.510;2022-12-18T04:15:14;100852.75;;;4.50;56.49
21988;BME280;11158;53.404;-1.510;2022-12-18T04:17:48;100856.34;;;4.79;56.63
21988;BME280;11158;53.404;-1.510;2022-12-18T04:20:14;100851.94;;;5.09;55.63
21988;BME280;11158;53.404;-1.510;2022-12-18T04:22:40;100845.63;;;5.20;54.74
21988;BME280;11158;53.404;-1.510;2022-12-18T04:25:06;100849.44;;;5.37;54.93
21988;BME280;11158;53.404;-1.510;2022-12-18T04:27:32;100852.09;;;5.37;54.28
21988;BME280;11158;53.404;-1.510;2022-12-18T04:29:58;100845.09;;;5.16;54.16
21988;BME280;11158;53.404;-1.510;2022-12-18T04:32:23;100838.69;;;5.09;54.80
21988;BME280;11158;53.404;-1.510;2022-12-18T04:34:49;100832.13;;;5.13;55.26
21988;BME280;11158;53.404;-1.510;2022-12-18T04:37:15;100829.72;;;5.20;54.71
21988;BME280;11158;53.404;-1.510;2022-12-18T04:39:40;100825.28;;;5.20;54.59
21988;BME280;11158;53.404;-1.510;2022-12-18T04:42:06;100818.31;;;5.39;54.39
21988;BME280;11158;53.404;-1.510;2022-12-18T04:44:31;100812.72;;;5.32;53.42
21988;BME280;11158;53.404;-1.510;2022-12-18T04:46:59;100817.63;;;5.27;54.06
21988;BME280;11158;53.404;-1.510;2022-12-18T04:49:26;100815.78;;;5.47;53.95
21988;BME280;11158;53.404;-1.510;2022-12-18T04:51:52;100813.56;;;5.52;52.95
21988;BME280;11158;53.404;-1.510;2022-12-18T04:54:18;100813.00;;;5.00;54.49
21988;BME280;11158;53.404;-1.510;2022-12-18T04:56:45;100805.75;;;5.31;54.44
21988;BME280;11158;53.404;-1.510;2022-12-18T04:59:11;100809.66;;;5.37;53.52
21988;BME280;11158;53.404;-1.510;2022-12-18T05:01:37;100799.88;;;5.47;53.65
21988;BME280;11158;53.404;-1.510;2022-12-18T05:04:03;100783.09;;;5.56;53.21
21988;BME280;11158;53.404;-1.510;2022-12-18T05:06:28;100783.16;;;5.37;53.21
21988;BME280;11158;53.404;-1.510;2022-12-18T05:08:54;100778.53;;;5.49;53.26
21988;BME280;11158;53.404;-1.510;2022-12-18T05:11:20;100784.00;;;5.28;53.61
21988;BME280;11158;53.404;-1.510;2022-12-18T05:13:45;100775.50;;;5.34;54.67
21988;BME280;11158;53.404;-1.510;2022-12-18T05:16:12;100764.72;;;5.35;54.38
21988;BME280;11158;53.404;-1.510;2022-12-18T05:18:38;100753.72;;;5.97;53.77
21988;BME280;11158;53.404;-1.510;2022-12-18T05:21:04;100748.13;;;5.90;53.95
21988;BME280;11158;53.404;-1.510;2022-12-18T05:23:29;100749.94;;;5.99;53.48
21988;BME280;11158;53.404;-1.510;2022-12-18T05:26:00;100754.28;;;6.28;53.37
21988;BME280;11158;53.404;-1.510;2022-12-18T05:28:28;100753.88;;;6.23;52.77
21988;BME280;11158;53.404;-1.510;2022-12-18T05:30:56;100752.34;;;5.83;53.68
21988;BME280;11158;53.404;-1.510;2022-12-18T05:33:25;100747.16;;;5.91;54.55
21988;BME280;11158;53.404;-1.510;2022-12-18T05:35:58;100738.63;;;5.87;54.36
21988;BME280;11158;53.404;-1.510;2022-12-18T05:38:29;100741.53;;;6.04;54.38
21988;BME280;11158;53.404;-1.510;2022-12-18T05:40:56;100735.97;;;5.50;54.80
21988;BME280;11158;53.404;-1.510;2022-12-18T05:43:24;100751.03;;;4.43;58.26
21988;BME280;11158;53.404;-1.510;2022-12-18T05:45:51;100751.78;;;4.24;59.35
21988;BME280;11158;53.404;-1.510;2022-12-18T05:48:18;100743.41;;;5.08;57.91
21988;BME280;11158;53.404;-1.510;2022-12-18T05:50:45;100754.41;;;5.32;57.33
21988;BME280;11158;53.404;-1.510;2022-12-18T05:53:13;100759.97;;;4.71;58.18
21988;BME280;11158;53.404;-1.510;2022-12-18T05:55:40;100771.50;;;4.40;59.43
21988;BME280;11158;53.404;-1.510;2022-12-18T05:58:08;100769.28;;;4.05;59.66
21988;BME280;11158;53.404;-1.510;2022-12-18T06:00:36;100767.22;;;3.78;61.91
21988;BME280;11158;53.404;-1.510;2022-12-18T06:03:06;100766.69;;;4.85;59.91
21988;BME280;11158;53.404;-1.510;2022-12-18T06:05:37;100777.16;;;4.96;58.94
21988;BME280;11158;53.404;-1.510;2022-12-18T06:08:03;100775.69;;;4.53;59.76
21988;BME280;11158;53.404;-1.510;2022-12-18T06:10:30;100771.41;;;4.61;59.58
21988;BME280;11158;53.404;-1.510;2022-12-18T06:12:56;100777.19;;;4.36;59.74
21988;BME280;11158;53.404;-1.510;2022-12-18T06:15:21;100771.78;;;4.07;61.99
21988;BME280;11158;53.404;-1.510;2022-12-18T06:17:47;100762.63;;;4.51;59.31
21988;BME280;11158;53.404;-1.510;2022-12-18T06:20:12;100753.28;;;4.57;60.61
21988;BME280;11158;53.404;-1.510;2022-12-18T06:22:39;100747.03;;;4.97;59.95
21988;BME280;11158;53.404;-1.510;2022-12-18T06:25:05;100754.16;;;5.16;58.63
21988;BME280;11158;53.404;-1.510;2022-12-18T06:27:31;100764.84;;;4.06;60.56
21988;BME280;11158;53.404;-1.510;2022-12-18T06:29:59;100769.88;;;4.59;59.85
21988;BME280;11158;53.404;-1.510;2022-12-18T06:32:25;100765.31;;;3.90;61.97
21988;BME280;11158;53.404;-1.510;2022-12-18T06:34:52;100761.81;;;4.20;59.76
21988;BME280;11158;53.404;-1.510;2022-12-18T06:37:19;100755.75;;;4.49;59.83
21988;BME280;11158;53.404;-1.510;2022-12-18T06:39:45;100747.47;;;4.23;59.97
21988;BME280;11158;53.404;-1.510;2022-12-18T06:42:10;100756.13;;;5.04;58.52
21988;BME280;11158;53.404;-1.510;2022-12-18T06:44:36;100769.22;;;4.96;59.32
21988;BME280;11158;53.404;-1.510;2022-12-18T06:47:02;100770.31;;;4.83;58.93
21988;BME280;11158;53.404;-1.510;2022-12-18T06:49:27;100775.56;;;4.54;59.40
21988;BME280;11158;53.404;-1.510;2022-12-18T06:51:53;100777.31;;;4.34;59.72
21988;BME280;11158;53.404;-1.510;2022-12-18T06:54:19;100776.91;;;4.29;61.25
21988;BME280;11158;53.404;-1.510;2022-12-18T06:56:45;100775.56;;;4.45;59.81
21988;BME280;11158;53.404;-1.510;2022-12-18T06:59:12;100781.47;;;4.68;59.44
21988;BME280;11158;53.404;-1.510;2022-12-18T07:01:38;100771.16;;;5.03;58.79
21988;BME280;11158;53.404;-1.510;2022-12-18T07:04:04;100776.47;;;4.94;58.51
21988;BME280;11158;53.404;-1.510;2022-12-18T07:06:29;100760.38;;;4.47;59.17
21988;BME280;11158;53.404;-1.510;2022-12-18T07:08:55;100761.63;;;4.43;60.44
21988;BME280;11158;53.404;-1.510;2022-12-18T07:11:21;100743.34;;;4.39;59.93
21988;BME280;11158;53.404;-1.510;2022-12-18T07:13:47;100736.16;;;3.49;62.40
21988;BME280;11158;53.404;-1.510;2022-12-18T07:16:16;100732.91;;;3.97;60.26
21988;BME280;11158;53.404;-1.510;2022-12-18T07:18:43;100734.88;;;5.33;58.84
21988;BME280;11158;53.404;-1.510;2022-12-18T07:21:11;100730.91;;;4.20;60.32
21988;BME280;11158;53.404;-1.510;2022-12-18T07:23:37;100734.03;;;4.05;60.27
21988;BME280;11158;53.404;-1.510;2022-12-18T07:26:04;100735.97;;;4.43;59.22
21988;BME280;11158;53.404;-1.510;2022-12-18T07:28:31;100739.50;;;4.13;59.32
21988;BME280;11158;53.404;-1.510;2022-12-18T07:30:57;100735.97;;;3.62;61.23
21988;BME280;11158;53.404;-1.510;2022-12-18T07:33:24;100718.03;;;4.47;59.50
21988;BME280;11158;53.404;-1.510;2022-12-18T07:35:51;100727.22;;;4.62;58.73
21988;BME280;11158;53.404;-1.510;2022-12-18T07:38:17;100735.19;;;5.01;58.31
21988;BME280;11158;53.404;-1.510;2022-12-18T07:40:42;100711.84;;;5.43;57.20
21988;BME280;11158;53.404;-1.510;2022-12-18T07:43:08;100704.69;;;5.91;55.64
21988;BME280;11158;53.404;-1.510;2022-12-18T07:45:34;100701.88;;;5.55;55.51
21988;BME280;11158;53.404;-1.510;2022-12-18T07:47:59;100704.13;;;5.97;54.13
21988;BME280;11158;53.404;-1.510;2022-12-18T07:50:25;100698.63;;;6.08;54.68
21988;BME280;11158;53.404;-1.510;2022-12-18T07:52:51;100697.63;;;5.82;54.30
21988;BME280;11158;53.404;-1.510;2022-12-18T07:55:17;100692.50;;;5.71;55.32
21988;BME280;11158;53.404;-1.510;2022-12-18T07:57:42;100699.34;;;5.16;55.65
21988;BME280;11158;53.404;-1.510;2022-12-18T08:00:09;100683.44;;;4.97;56.49
21988;BME280;11158;53.404;-1.510;2022-12-18T08:02:35;100699.16;;;5.28;55.48
21988;BME280;11158;53.404;-1.510;2022-12-18T08:05:01;100702.00;;;5.07;56.26
21988;BME280;11158;53.404;-1.510;2022-12-18T08:07:26;100713.16;;;4.71;57.08
21988;BME280;11158;53.404;-1.510;2022-12-18T08:09:52;100716.56;;;4.33;58.08
21988;BME280;11158;53.404;-1.510;2022-12-18T08:12:18;100709.50;;;5.01;57.08
21988;BME280;11158;53.404;-1.510;2022-12-18T08:14:44;100708.91;;;5.37;55.86
21988;BME280;11158;53.404;-1.510;2022-12-18T08:17:09;100707.69;;;5.21;56.13
21988;BME280;11158;53.404;-1.510;2022-12-18T08:19:35;100714.69;;;4.93;56.58
21988;BME280;11158;53.404;-1.510;2022-12-18T08:22:00;100721.53;;;4.16;57.55
21988;BME280;11158;53.404;-1.510;2022-12-18T08:24:26;100733.66;;;4.09;58.72
21988;BME280;11158;53.404;-1.510;2022-12-18T08:26:53;100732.09;;;4.07;59.21
21988;BME280;11158;53.404;-1.510;2022-12-18T08:29:19;100723.09;;;3.78;59.63
21988;BME280;11158;53.404;-1.510;2022-12-18T08:31:45;100712.13;;;3.83;59.41
21988;BME280;11158;53.404;-1.510;2022-12-18T08:34:11;100714.25;;;4.49;59.36
21988;BME280;11158;53.404;-1.510;2022-12-18T08:36:37;100722.63;;;4.54;58.15
21988;BME280;11158;53.404;-1.510;2022-12-18T08:39:03;100710.06;;;5.24;56.83
21988;BME280;11158;53.404;-1.510;2022-12-18T08:41:29;100708.09;;;5.27;55.91
21988;BME280;11158;53.404;-1.510;2022-12-18T08:43:54;100712.28;;;5.39;55.72
21988;BME280;11158;53.404;-1.510;2022-12-18T08:46:40;100693.91;;;4.69;56.54
21988;BME280;11158;53.404;-1.510;2022-12-18T08:49:08;100694.22;;;4.86;57.03
21988;BME280;11158;53.404;-1.510;2022-12-18T08:51:34;100692.09;;;4.99;56.86
21988;BME280;11158;53.404;-1.510;2022-12-18T08:54:00;100682.63;;;4.57;56.75
21988;BME280;11158;53.404;-1.510;2022-12-18T08:56:25;100669.66;;;4.74;56.50
21988;BME280;11158;53.404;-1.510;2022-12-18T08:58:53;100671.75;;;4.51;57.75
21988;BME280;11158;53.404;-1.510;2022-12-18T09:01:19;100667.59;;;4.68;58.40
21988;BME280;11158;53.404;-1.510;2022-12-18T09:03:45;100660.19;;;4.61;57.39
21988;BME280;11158;53.404;-1.510;2022-12-18T09:06:14;100665.16;;;5.13;55.82
21988;BME280;11158;53.404;-1.510;2022-12-18T09:08:42;100655.16;;;4.29;56.83
21988;BME280;11158;53.404;-1.510;2022-12-18T09:11:19;100660.97;;;4.04;58.85
21988;BME280;11158;53.404;-1.510;2022-12-18T09:13:46;100660.72;;;4.26;58.49
21988;BME280;11158;53.404;-1.510;2022-12-18T09:16:12;100662.09;;;4.11;58.52
21988;BME280;11158;53.404;-1.510;2022-12-18T09:18:38;100645.97;;;4.53;57.79
21988;BME280;11158;53.404;-1.510;2022-12-18T09:21:18;100646.03;;;4.03;58.58
21988;BME280;11158;53.404;-1.510;2022-12-18T09:23:51;100641.50;;;4.44;57.72
21988;BME280;11158;53.404;-1.510;2022-12-18T09:26:18;100626.88;;;4.39;57.42
21988;BME280;11158;53.404;-1.510;2022-12-18T09:28:44;100620.88;;;4.18;58.43
21988;BME280;11158;53.404;-1.510;2022-12-18T09:31:11;100609.00;;;3.52;59.59
21988;BME280;11158;53.404;-1.510;2022-12-18T09:33:37;100601.91;;;4.03;59.55
21988;BME280;11158;53.404;-1.510;2022-12-18T09:36:05;100598.81;;;3.88;59.26
21988;BME280;11158;53.404;-1.510;2022-12-18T09:38:33;100601.16;;;3.41;60.15
21988;BME280;11158;53.404;-1.510;2022-12-18T09:44:00;100597.19;;;3.97;59.90
21988;BME280;11158;53.404;-1.510;2022-12-18T09:46:30;100595.25;;;4.77;57.84
21988;BME280;11158;53.404;-1.510;2022-12-18T09:49:01;100574.91;;;4.68;57.46
21988;BME280;11158;53.404;-1.510;2022-12-18T09:51:57;100555.69;;;5.03;57.38
21988;BME280;11158;53.404;-1.510;2022-12-18T09:54:28;100566.75;;;4.89;55.17
21988;BME280;11158;53.404;-1.510;2022-12-18T09:56:56;100562.50;;;4.58;56.41
21988;BME280;11158;53.404;-1.510;2022-12-18T09:59:33;100561.22;;;4.72;56.63
21988;BME280;11158;53.404;-1.510;2022-12-18T10:02:33;100559.75;;;5.07;55.90
21988;BME280;11158;53.404;-1.510;2022-12-18T10:07:53;100562.91;;;5.20;55.02
21988;BME280;11158;53.404;-1.510;2022-12-18T10:15:50;100562.66;;;6.15;53.20
21988;BME280;11158;53.404;-1.510;2022-12-18T10:21:10;100533.41;;;5.79;52.62
21988;BME280;11158;53.404;-1.510;2022-12-18T10:23:53;100528.50;;;5.66;52.78
21988;BME280;11158;53.404;-1.510;2022-12-18T10:26:22;100518.00;;;6.28;52.07
21988;BME280;11158;53.404;-1.510;2022-12-18T10:28:51;100519.16;;;5.62;53.33
21988;BME280;11158;53.404;-1.510;2022-12-18T10:31:23;100504.88;;;5.73;54.08
21988;BME280;11158;53.404;-1.510;2022-12-18T10:33:49;100506.66;;;5.90;53.36
21988;BME280;11158;53.404;-1.510;2022-12-18T10:36:15;100492.06;;;6.22;52.20
21988;BME280;11158;53.404;-1.510;2022-12-18T10:38:40;100503.50;;;4.86;54.16
21988;BME280;11158;53.404;-1.510;2022-12-18T10:41:23;100501.69;;;5.41;53.88
21988;BME280;11158;53.404;-1.510;2022-12-18T10:44:12;100504.47;;;5.40;55.60
21988;BME280;11158;53.404;-1.510;2022-12-18T10:46:41;100484.19;;;5.94;53.23
21988;BME280;11158;53.404;-1.510;2022-12-18T10:49:18;100488.19;;;5.07;54.25
21988;BME280;11158;53.404;-1.510;2022-12-18T10:51:44;100475.22;;;5.77;53.44
21988;BME280;11158;53.404;-1.510;2022-12-18T10:54:17;100468.59;;;6.35;52.34
21988;BME280;11158;53.404;-1.510;2022-12-18T10:56:43;100448.47;;;6.50;50.72
21988;BME280;11158;53.404;-1.510;2022-12-18T10:59:11;100442.03;;;5.73;52.62
21988;BME280;11158;53.404;-1.510;2022-12-18T11:01:53;100448.09;;;6.71;52.08
21988;BME280;11158;53.404;-1.510;2022-12-18T11:04:30;100445.31;;;6.81;49.96
21988;BME280;11158;53.404;-1.510;2022-12-18T11:11:57;100418.06;;;5.47;53.15
21988;BME280;11158;53.404;-1.510;2022-12-18T11:14:54;100412.41;;;5.78;53.68
21988;BME280;11158;53.404;-1.510;2022-12-18T11:17:29;100406.31;;;5.85;52.91
21988;BME280;11158;53.404;-1.510;2022-12-18T11:20:01;100416.41;;;5.82;52.75
21988;BME280;11158;53.404;-1.510;2022-12-18T11:22:30;100411.06;;;6.44;52.08
21988;BME280;11158;53.404;-1.510;2022-12-18T11:27:48;100400.44;;;5.10;56.58
21988;BME280;11158;53.404;-1.510;2022-12-18T11:30:21;100397.47;;;4.68;56.78
21988;BME280;11158;53.404;-1.510;2022-12-18T11:32:56;100388.94;;;4.36;57.38
21988;BME280;11158;53.404;-1.510;2022-12-18T11:38:04;100378.88;;;5.59;55.43
21988;BME280;11158;53.404;-1.510;2022-12-18T11:40:35;100370.34;;;5.11;54.96
21988;BME280;11158;53.404;-1.510;2022-12-18T11:45:53;100355.13;;;5.93;54.33
21988;BME280;11158;53.404;-1.510;2022-12-18T11:48:28;100354.88;;;5.60;54.96
21988;BME280;11158;53.404;-1.510;2022-12-18T11:50:57;100349.34;;;5.54;54.42
21988;BME280;11158;53.404;-1.510;2022-12-18T11:53:26;100340.56;;;5.35;55.18
21988;BME280;11158;53.404;-1.510;2022-12-18T11:55:58;100328.59;;;5.49;54.94
21988;BME280;11158;53.404;-1.510;2022-12-18T12:15:39;100268.81;;;5.73;54.75
21988;BME280;11158;53.404;-1.510;2022-12-18T12:24:04;100254.03;;;6.89;52.50
21988;BME280;11158;53.404;-1.510;2022-12-18T12:30:03;100237.13;;;6.48;52.85
21988;BME280;11158;53.404;-1.510;2022-12-18T12:35:37;100225.59;;;6.98;53.03
21988;BME280;11158;53.404;-1.510;2022-12-18T12:38:09;100221.41;;;7.69;50.03
21988;BME280;11158;53.404;-1.510;2022-12-18T12:40:44;100212.44;;;6.56;52.59
21988;BME280;11158;53.404;-1.510;2022-12-18T12:43:22;100206.50;;;7.36;51.81
21988;BME280;11158;53.404;-1.510;2022-12-18T12:46:05;100207.81;;;7.48;51.37
21988;BME280;11158;53.404;-1.510;2022-12-18T12:51:32;100199.53;;;6.69;52.32
21988;BME280;11158;53.404;-1.510;2022-12-18T12:54:01;100204.38;;;6.23;53.99
21988;BME280;11158;53.404;-1.510;2022-12-18T12:56:51;100194.72;;;6.14;54.42
21988;BME280;11158;53.404;-1.510;2022-12-18T12:59:37;100187.72;;;6.04;54.55
21988;BME280;11158;53.404;-1.510;2022-12-18T13:05:06;100180.50;;;5.28;56.45
21988;BME280;11158;53.404;-1.510;2022-12-18T13:07:41;100170.72;;;5.55;56.52
21988;BME280;11158;53.404;-1.510;2022-12-18T13:13:09;100167.53;;;5.51;57.69
21988;BME280;11158;53.404;-1.510;2022-12-18T13:15:39;100153.44;;;6.27;56.17
21988;BME280;11158;53.404;-1.510;2022-12-18T13:18:19;100148.66;;;6.31;55.20
21988;BME280;11158;53.404;-1.510;2022-12-18T13:25:56;100121.50;;;5.52;57.99
21988;BME280;11158;53.404;-1.510;2022-12-18T13:30:58;100113.84;;;6.91;54.86
21988;BME280;11158;53.404;-1.510;2022-12-18T13:36:16;100111.66;;;6.38;55.73
21988;BME280;11158;53.404;-1.510;2022-12-18T13:41:37;100093.41;;;6.59;55.21
21988;BME280;11158;53.404;-1.510;2022-12-18T13:46:45;100083.16;;;5.81;57.00
21988;BME280;11158;53.404;-1.510;2022-12-18T13:51:47;100063.06;;;6.45;55.97
21988;BME280;11158;53.404;-1.510;2022-12-18T13:54:37;100069.47;;;6.02;57.69
21988;BME280;11158;53.404;-1.510;2022-12-18T13:57:22;100056.13;;;5.85;57.59
21988;BME280;11158;53.404;-1.510;2022-12-18T13:59:49;100056.91;;;6.69;55.76
21988;BME280;11158;53.404;-1.510;2022-12-18T14:02:18;100046.47;;;6.52;56.00
21988;BME280;11158;53.404;-1.510;2022-12-18T14:04:47;100038.66;;;6.50;56.18
21988;BME280;11158;53.404;-1.510;2022-12-18T14:07:16;100050.63;;;6.62;56.85
21988;BME280;11158;53.404;-1.510;2022-12-18T14:09:44;100036.03;;;5.66;58.19
21988;BME280;11158;53.404;-1.510;2022-12-18T14:12:20;100026.81;;;5.87;58.68
21988;BME280;11158;53.404;-1.510;2022-12-18T14:15:14;100012.38;;;5.90;58.67
21988;BME280;11158;53.404;-1.510;2022-12-18T14:17:46;100008.94;;;4.70;60.76
21988;BME280;11158;53.404;-1.510;2022-12-18T14:20:15;100001.56;;;5.66;60.57
21988;BME280;11158;53.404;-1.510;2022-12-18T14:22:47;100006.59;;;6.02;59.00
21988;BME280;11158;53.404;-1.510;2022-12-18T14:27:45;99989.56;;;5.54;60.17
21988;BME280;11158;53.404;-1.510;2022-12-18T14:30:40;99995.16;;;5.35;60.09
21988;BME280;11158;53.404;-1.510;2022-12-18T14:33:13;99987.03;;;5.95;59.96
21988;BME280;11158;53.404;-1.510;2022-12-18T14:41:15;99996.00;;;6.02;58.98
21988;BME280;11158;53.404;-1.510;2022-12-18T14:43:43;99991.88;;;5.41;60.49
21988;BME280;11158;53.404;-1.510;2022-12-18T14:46:37;99983.00;;;5.75;60.54
21988;BME280;11158;53.404;-1.510;2022-12-18T14:49:04;99976.56;;;5.85;59.80
21988;BME280;11158;53.404;-1.510;2022-12-18T14:51:56;99986.34;;;5.93;59.88
21988;BME280;11158;53.404;-1.510;2022-12-18T14:54:24;99974.09;;;6.49;58.52
21988;BME280;11158;53.404;-1.510;2022-12-18T14:57:02;99964.28;;;5.17;61.48
21988;BME280;11158;53.404;-1.510;2022-12-18T14:59:29;99954.31;;;5.70;60.98